This is the latest recevied weather packets stored in our database for station/object DH8TOM-4. If no packets are shown the sender has not sent any weather packets the latest 10 day(s).
| Time | Temp. | Humidity | Pressure | Rain* | Wind** | Luminosity | Snow |
|---|---|---|---|---|---|---|---|
| 1777622604 | 25.56° C | 39% | 1028.7 hPa | - | - | - | - |
| 1777622303 | 24.44° C | 39% | 1028.6 hPa | - | - | - | - |
| 1777622001 | 24.44° C | 40% | 1028.5 hPa | - | - | - | - |
| 1777621701 | 24.44° C | 40% | 1028.5 hPa | - | - | - | - |
| 1777621400 | 24.44° C | 40% | 1028.5 hPa | - | - | - | - |
| 1777621099 | 23.89° C | 42% | 1028.5 hPa | - | - | - | - |
| 1777620798 | 23.89° C | 42% | 1028.5 hPa | - | - | - | - |
| 1777620497 | 22.78° C | 44% | 1028.6 hPa | - | - | - | - |
| 1777620196 | 22.78° C | 44% | 1028.6 hPa | - | - | - | - |
| 1777619895 | 21.67° C | 45% | 1028.6 hPa | - | - | - | - |
| 1777619593 | 21.67° C | 45% | 1028.5 hPa | - | - | - | - |
| 1777619293 | 21.67° C | 45% | 1028.5 hPa | - | - | - | - |
| 1777618992 | 21.67° C | 45% | 1028.5 hPa | - | - | - | - |
| 1777618690 | 21.67° C | 47% | 1028.6 hPa | - | - | - | - |
| 1777618390 | 21.67° C | 47% | 1028.6 hPa | - | - | - | - |
| 1777618089 | 20° C | 51% | 1028.5 hPa | - | - | - | - |
| 1777617788 | 20° C | 51% | 1028.5 hPa | - | - | - | - |
| 1777617487 | 17.22° C | 56% | 1028.5 hPa | - | - | - | - |
| 1777617185 | 17.22° C | 56% | 1028.5 hPa | - | - | - | - |
| 1777616885 | 15.56° C | 62% | 1028.6 hPa | - | - | - | - |
| 1777616584 | 15.56° C | 62% | 1028.6 hPa | - | - | - | - |
| 1777616283 | 13.89° C | 69% | 1028.6 hPa | - | - | - | - |
| 1777615982 | 12.22° C | 76% | 1028.6 hPa | - | - | - | - |
| 1777615681 | 12.22° C | 76% | 1028.6 hPa | - | - | - | - |
| 1777615380 | 12.22° C | 76% | 1028.6 hPa | - | - | - | - |
* Rain since midnight (hover to see other rain measurements)
** Current wind speed in m/s (hover to see current wind gust speed)